Kodiak Airport Kodiak US
ICAO: PADQ
IATA:
Category: Medium
Scheduled Services:

Elevation: 78 ft
TransAlt. 18000 ft.

Airport Communications:
ANCHORAGE CNTR:125.1
ATIS:135.5
CTAF:119.8
KENAI RDO:119.8
GND:121.9
TWEB:117.1
OPS:156.8
KENAI RDO:122.2
TWR:119.8
UNICOM:122.8

PADQ Zoom In..

If you have problems with the map follow the link
https://www.worldairports.se/pages/airport.php?
ICAO=PADQ

Runways:

(A) RW 07 length 7550 ft width 150 ft
---- / hdg 74

(B) RW 11 length 5400 ft width 150 ft
---- / hdg 109

(C) RW 18 length 5010 ft width 150 ft
---- / hdg 184

(D) RW 25 length 7550 ft width 150 ft
ILS 110.90 / hdg 254

(E) RW 29 length 5400 ft width 150 ft
---- / hdg 289

(F) RW 36 length 5010 ft width 150 ft
---- / hdg 4

Location; PADQ
Day. 24 / Time. 10.53 Zulu
* Altimeter: 30.01
* Temperature: 03° c. 37.4°f.
* Wind from: 350° Speed 04 kn.
Dewpoint: 03° c.
Visibility: 8 Statute Miles.
Clouds: Few 1900 ft.
Clouds: Broken 2800 ft.
Clouds: Overcast 3600 ft.
Conditions: Light Rain.

PADQ 241053Z AUTO 35004KT 8SM -RA FEW019 BKN028 OVC036 03/03 A3001 RMK AO2 SLP163 P0000 T00330028 TSNO


Wind From 350°
Speed 04 kn.

 
 
jpsmedia.com for Web Design worldairports.se 2019   terms of use